sensor_id;sensor_type;location;lat;lon;timestamp;pressure;altitude;pressure_sealevel;temperature;humidity
54369;BME280;40266;52.434;17.056;2023-04-22T00:22:20;100694.89;;;5.97;72.02
54369;BME280;40266;52.434;17.056;2023-04-22T00:42:02;100688.34;;;5.58;72.78
54369;BME280;40266;52.434;17.056;2023-04-22T00:53:30;100683.05;;;5.33;73.48
54369;BME280;40266;52.434;17.056;2023-04-22T01:04:40;100687.27;;;5.11;73.80
54369;BME280;40266;52.434;17.056;2023-04-22T01:07:23;100685.02;;;5.07;73.81
54369;BME280;40266;52.434;17.056;2023-04-22T01:10:06;100686.57;;;5.03;73.79
54369;BME280;40266;52.434;17.056;2023-04-22T01:12:49;100686.70;;;4.98;74.19
54369;BME280;40266;52.434;17.056;2023-04-22T01:15:32;100685.45;;;4.94;74.21
54369;BME280;40266;52.434;17.056;2023-04-22T01:18:16;100687.52;;;4.89;74.40
54369;BME280;40266;52.434;17.056;2023-04-22T01:20:59;100688.00;;;4.83;74.36
54369;BME280;40266;52.434;17.056;2023-04-22T01:23:44;100686.58;;;4.77;74.53
54369;BME280;40266;52.434;17.056;2023-04-22T01:26:27;100687.92;;;4.73;74.49
54369;BME280;40266;52.434;17.056;2023-04-22T01:29:10;100691.53;;;4.68;74.61
54369;BME280;40266;52.434;17.056;2023-04-22T01:31:54;100693.73;;;4.63;74.73
54369;BME280;40266;52.434;17.056;2023-04-22T01:34:37;100694.06;;;4.58;74.77
54369;BME280;40266;52.434;17.056;2023-04-22T01:37:20;100693.16;;;4.52;74.83
54369;BME280;40266;52.434;17.056;2023-04-22T01:40:04;100689.82;;;4.48;75.05
54369;BME280;40266;52.434;17.056;2023-04-22T01:42:47;100691.17;;;4.42;75.11
54369;BME280;40266;52.434;17.056;2023-04-22T01:45:31;100688.38;;;4.39;75.21
54369;BME280;40266;52.434;17.056;2023-04-22T01:48:14;100693.88;;;4.35;75.27
54369;BME280;40266;52.434;17.056;2023-04-22T01:50:57;100692.80;;;4.31;75.46
54369;BME280;40266;52.434;17.056;2023-04-22T01:53:40;100691.90;;;4.27;75.59
54369;BME280;40266;52.434;17.056;2023-04-22T01:56:23;100687.73;;;4.23;75.72
54369;BME280;40266;52.434;17.056;2023-04-22T01:59:06;100688.19;;;4.17;75.99
54369;BME280;40266;52.434;17.056;2023-04-22T02:01:50;100687.62;;;4.11;75.94
54369;BME280;40266;52.434;17.056;2023-04-22T02:04:33;100685.83;;;4.05;75.97
54369;BME280;40266;52.434;17.056;2023-04-22T02:07:17;100687.84;;;3.98;76.17
54369;BME280;40266;52.434;17.056;2023-04-22T02:10:00;100688.30;;;3.92;76.15
54369;BME280;40266;52.434;17.056;2023-04-22T02:12:43;100684.59;;;3.85;76.44
54369;BME280;40266;52.434;17.056;2023-04-22T02:15:28;100682.80;;;3.78;76.43
54369;BME280;40266;52.434;17.056;2023-04-22T02:18:12;100682.21;;;3.72;76.48
54369;BME280;40266;52.434;17.056;2023-04-22T02:20:56;100680.10;;;3.67;76.71
54369;BME280;40266;52.434;17.056;2023-04-22T02:23:39;100676.92;;;3.62;76.80
54369;BME280;40266;52.434;17.056;2023-04-22T02:26:23;100677.05;;;3.56;77.03
54369;BME280;40266;52.434;17.056;2023-04-22T02:29:07;100673.02;;;3.51;77.20
54369;BME280;40266;52.434;17.056;2023-04-22T02:31:50;100667.42;;;3.45;77.32
54369;BME280;40266;52.434;17.056;2023-04-22T02:34:33;100668.05;;;3.39;77.45
54369;BME280;40266;52.434;17.056;2023-04-22T02:37:16;100670.91;;;3.33;77.58
54369;BME280;40266;52.434;17.056;2023-04-22T02:40:00;100668.59;;;3.28;77.99
54369;BME280;40266;52.434;17.056;2023-04-22T02:42:44;100666.11;;;3.22;77.97
54369;BME280;40266;52.434;17.056;2023-04-22T02:45:27;100664.31;;;3.17;77.89
54369;BME280;40266;52.434;17.056;2023-04-22T02:48:10;100665.45;;;3.11;78.15
54369;BME280;40266;52.434;17.056;2023-04-22T02:50:53;100664.02;;;3.07;78.32
54369;BME280;40266;52.434;17.056;2023-04-22T02:53:36;100662.21;;;3.02;78.37
54369;BME280;40266;52.434;17.056;2023-04-22T02:56:19;100660.60;;;2.97;78.60
54369;BME280;40266;52.434;17.056;2023-04-22T02:59:03;100661.74;;;2.92;78.73
54369;BME280;40266;52.434;17.056;2023-04-22T03:01:46;100661.52;;;2.88;79.14
54369;BME280;40266;52.434;17.056;2023-04-22T03:04:37;100660.23;;;2.82;79.36
54369;BME280;40266;52.434;17.056;2023-04-22T03:07:20;100656.73;;;2.79;79.25
54369;BME280;40266;52.434;17.056;2023-04-22T03:10:03;100659.78;;;2.74;79.31
54369;BME280;40266;52.434;17.056;2023-04-22T03:12:46;100660.06;;;2.70;79.43
54369;BME280;40266;52.434;17.056;2023-04-22T03:15:30;100658.63;;;2.66;79.44
54369;BME280;40266;52.434;17.056;2023-04-22T03:18:14;100656.51;;;2.63;79.50
54369;BME280;40266;52.434;17.056;2023-04-22T03:20:57;100655.42;;;2.59;79.78
54369;BME280;40266;52.434;17.056;2023-04-22T03:23:40;100652.77;;;2.55;79.90
54369;BME280;40266;52.434;17.056;2023-04-22T03:26:23;100651.88;;;2.52;80.24
54369;BME280;40266;52.434;17.056;2023-04-22T03:29:06;100648.55;;;2.50;80.13
54369;BME280;40266;52.434;17.056;2023-04-22T03:31:49;100648.50;;;2.46;80.48
54369;BME280;40266;52.434;17.056;2023-04-22T03:34:32;100642.60;;;2.43;80.36
54369;BME280;40266;52.434;17.056;2023-04-22T03:37:18;100644.80;;;2.41;80.43
54369;BME280;40266;52.434;17.056;2023-04-22T03:40:02;100642.35;;;2.39;80.52
54369;BME280;40266;52.434;17.056;2023-04-22T03:42:47;100643.55;;;2.38;80.47
54369;BME280;40266;52.434;17.056;2023-04-22T03:45:32;100639.73;;;2.37;80.63
54369;BME280;40266;52.434;17.056;2023-04-22T03:48:30;100641.98;;;2.36;80.91
54369;BME280;40266;52.434;17.056;2023-04-22T03:51:21;100642.66;;;2.36;80.95
54369;BME280;40266;52.434;17.056;2023-04-22T03:54:04;100644.54;;;2.35;81.11
54369;BME280;40266;52.434;17.056;2023-04-22T03:56:48;100644.52;;;2.34;81.23
54369;BME280;40266;52.434;17.056;2023-04-22T03:59:31;100644.53;;;2.35;81.27
54369;BME280;40266;52.434;17.056;2023-04-22T04:02:14;100646.58;;;2.33;81.62
54369;BME280;40266;52.434;17.056;2023-04-22T04:04:57;100643.85;;;2.35;81.53
54369;BME280;40266;52.434;17.056;2023-04-22T04:07:41;100643.35;;;2.36;81.58
54369;BME280;40266;52.434;17.056;2023-04-22T04:10:24;100641.48;;;2.38;81.75
54369;BME280;40266;52.434;17.056;2023-04-22T04:13:08;100637.04;;;2.40;81.82
54369;BME280;40266;52.434;17.056;2023-04-22T04:15:59;100639.65;;;2.42;82.04
54369;BME280;40266;52.434;17.056;2023-04-22T04:18:43;100634.37;;;2.46;81.99
54369;BME280;40266;52.434;17.056;2023-04-22T04:21:27;100636.48;;;2.49;82.08
54369;BME280;40266;52.434;17.056;2023-04-22T04:24:11;100638.27;;;2.53;82.18
54369;BME280;40266;52.434;17.056;2023-04-22T04:26:58;100637.65;;;2.58;82.29
54369;BME280;40266;52.434;17.056;2023-04-22T04:29:45;100639.45;;;2.64;82.38
54369;BME280;40266;52.434;17.056;2023-04-22T04:32:33;100639.52;;;2.68;82.60
54369;BME280;40266;52.434;17.056;2023-04-22T04:35:20;100639.09;;;2.75;82.62
54369;BME280;40266;52.434;17.056;2023-04-22T04:38:06;100637.81;;;2.83;82.77
54369;BME280;40266;52.434;17.056;2023-04-22T04:40:50;100634.83;;;2.91;82.79
54369;BME280;40266;52.434;17.056;2023-04-22T04:43:37;100637.55;;;3.03;82.86
54369;BME280;40266;52.434;17.056;2023-04-22T04:46:42;100640.30;;;3.15;83.06
54369;BME280;40266;52.434;17.056;2023-04-22T04:49:26;100641.83;;;3.26;83.06
54369;BME280;40266;52.434;17.056;2023-04-22T04:52:13;100645.24;;;3.39;83.10
54369;BME280;40266;52.434;17.056;2023-04-22T04:54:56;100643.50;;;3.53;83.16
54369;BME280;40266;52.434;17.056;2023-04-22T04:57:40;100641.27;;;3.69;83.29
54369;BME280;40266;52.434;17.056;2023-04-22T05:00:26;100640.08;;;3.90;83.32
54369;BME280;40266;52.434;17.056;2023-04-22T05:03:09;100638.04;;;4.14;83.43
54369;BME280;40266;52.434;17.056;2023-04-22T05:05:53;100637.40;;;4.45;83.16
54369;BME280;40266;52.434;17.056;2023-04-22T05:08:36;100633.21;;;4.97;82.97
54369;BME280;40266;52.434;17.056;2023-04-22T05:11:22;100631.56;;;5.76;82.57
54369;BME280;40266;52.434;17.056;2023-04-22T05:14:05;100630.23;;;6.26;82.02
54369;BME280;40266;52.434;17.056;2023-04-22T05:16:51;100631.58;;;6.59;81.42
54369;BME280;40266;52.434;17.056;2023-04-22T05:19:35;100628.50;;;7.43;80.44
54369;BME280;40266;52.434;17.056;2023-04-22T05:22:19;100623.64;;;8.57;78.88
54369;BME280;40266;52.434;17.056;2023-04-22T05:25:03;100623.30;;;9.83;76.85
54369;BME280;40266;52.434;17.056;2023-04-22T05:27:46;100622.15;;;11.34;73.68
54369;BME280;40266;52.434;17.056;2023-04-22T05:30:29;100620.38;;;12.61;71.89
54369;BME280;40266;52.434;17.056;2023-04-22T05:33:14;100623.18;;;12.87;69.86
54369;BME280;40266;52.434;17.056;2023-04-22T05:35:57;100624.39;;;12.82;68.19
54369;BME280;40266;52.434;17.056;2023-04-22T05:38:40;100629.09;;;12.50;67.31
54369;BME280;40266;52.434;17.056;2023-04-22T05:41:23;100628.71;;;12.70;66.76
54369;BME280;40266;52.434;17.056;2023-04-22T05:44:07;100625.96;;;12.75;64.96
54369;BME280;40266;52.434;17.056;2023-04-22T05:46:49;100625.73;;;13.09;63.47
54369;BME280;40266;52.434;17.056;2023-04-22T05:49:33;100620.54;;;14.00;62.02
54369;BME280;40266;52.434;17.056;2023-04-22T05:52:16;100624.54;;;13.90;61.74
54369;BME280;40266;52.434;17.056;2023-04-22T05:55:23;100627.41;;;13.77;61.30
54369;BME280;40266;52.434;17.056;2023-04-22T05:58:06;100633.19;;;13.43;61.00
54369;BME280;40266;52.434;17.056;2023-04-22T06:00:57;100634.77;;;13.00;61.04
54369;BME280;40266;52.434;17.056;2023-04-22T06:03:55;100634.40;;;12.68;60.87
54369;BME280;40266;52.434;17.056;2023-04-22T06:06:40;100639.02;;;12.46;60.70
54369;BME280;40266;52.434;17.056;2023-04-22T06:09:23;100634.14;;;12.24;60.81
54369;BME280;40266;52.434;17.056;2023-04-22T06:12:06;100633.05;;;12.11;61.12
54369;BME280;40266;52.434;17.056;2023-04-22T06:14:51;100637.08;;;12.18;60.89
54369;BME280;40266;52.434;17.056;2023-04-22T06:17:34;100635.72;;;13.02;60.23
54369;BME280;40266;52.434;17.056;2023-04-22T06:20:17;100632.80;;;14.74;58.28
54369;BME280;40266;52.434;17.056;2023-04-22T06:23:00;100634.18;;;15.66;56.82
54369;BME280;40266;52.434;17.056;2023-04-22T06:25:43;100631.54;;;16.48;54.85
54369;BME280;40266;52.434;17.056;2023-04-22T06:28:27;100633.04;;;17.27;53.70
54369;BME280;40266;52.434;17.056;2023-04-22T06:31:11;100630.45;;;18.19;51.51
54369;BME280;40266;52.434;17.056;2023-04-22T06:33:55;100626.70;;;19.48;48.32
54369;BME280;40266;52.434;17.056;2023-04-22T06:36:38;100624.77;;;20.62;46.49
54369;BME280;40266;52.434;17.056;2023-04-22T06:39:21;100627.14;;;21.20;45.80
54369;BME280;40266;52.434;17.056;2023-04-22T06:42:40;100626.91;;;20.84;44.15
54369;BME280;40266;52.434;17.056;2023-04-22T06:45:42;100625.40;;;20.94;45.04
54369;BME280;40266;52.434;17.056;2023-04-22T06:48:35;100627.23;;;20.39;45.50
54369;BME280;40266;52.434;17.056;2023-04-22T06:51:32;100627.23;;;19.81;45.35
54369;BME280;40266;52.434;17.056;2023-04-22T06:54:15;100633.73;;;19.14;44.70
54369;BME280;40266;52.434;17.056;2023-04-22T06:56:59;100626.44;;;18.50;45.82
54369;BME280;40266;52.434;17.056;2023-04-22T06:59:42;100626.73;;;18.09;45.38
54369;BME280;40266;52.434;17.056;2023-04-22T07:02:28;100627.79;;;17.79;46.38
54369;BME280;40266;52.434;17.056;2023-04-22T07:05:11;100624.30;;;17.63;47.42
54369;BME280;40266;52.434;17.056;2023-04-22T07:07:55;100619.29;;;18.41;47.00
54369;BME280;40266;52.434;17.056;2023-04-22T07:10:38;100622.63;;;18.90;45.89
54369;BME280;40266;52.434;17.056;2023-04-22T07:13:57;100618.06;;;19.09;45.46
54369;BME280;40266;52.434;17.056;2023-04-22T07:16:40;100616.97;;;19.61;45.57
54369;BME280;40266;52.434;17.056;2023-04-22T07:19:23;100614.77;;;20.52;44.25
54369;BME280;40266;52.434;17.056;2023-04-22T07:22:06;100613.92;;;21.39;42.66
54369;BME280;40266;52.434;17.056;2023-04-22T07:24:49;100612.79;;;21.28;43.24
54369;BME280;40266;52.434;17.056;2023-04-22T07:27:34;100614.54;;;20.94;43.27
54369;BME280;40266;52.434;17.056;2023-04-22T07:30:19;100615.52;;;20.54;43.18
54369;BME280;40266;52.434;17.056;2023-04-22T07:33:01;100616.40;;;20.51;42.60
54369;BME280;40266;52.434;17.056;2023-04-22T07:35:45;100613.97;;;20.35;43.34
54369;BME280;40266;52.434;17.056;2023-04-22T07:38:29;100612.81;;;20.10;43.79
54369;BME280;40266;52.434;17.056;2023-04-22T07:41:12;100612.61;;;19.82;44.62
54369;BME280;40266;52.434;17.056;2023-04-22T07:43:55;100607.89;;;20.33;44.20
54369;BME280;40266;52.434;17.056;2023-04-22T07:46:38;100605.96;;;20.66;42.87
54369;BME280;40266;52.434;17.056;2023-04-22T07:49:21;100604.52;;;20.48;42.93
54369;BME280;40266;52.434;17.056;2023-04-22T07:52:04;100607.34;;;20.34;43.37
54369;BME280;40266;52.434;17.056;2023-04-22T07:54:47;100606.02;;;20.11;43.73
54369;BME280;40266;52.434;17.056;2023-04-22T07:57:30;100608.48;;;19.90;44.02
54369;BME280;40266;52.434;17.056;2023-04-22T08:00:14;100609.58;;;19.67;44.57
54369;BME280;40266;52.434;17.056;2023-04-22T08:02:57;100605.93;;;19.52;44.70
54369;BME280;40266;52.434;17.056;2023-04-22T08:05:41;100610.05;;;19.65;44.54
54369;BME280;40266;52.434;17.056;2023-04-22T08:08:24;100602.45;;;19.99;44.12
54369;BME280;40266;52.434;17.056;2023-04-22T08:11:07;100598.85;;;19.94;43.84
54369;BME280;40266;52.434;17.056;2023-04-22T08:13:50;100600.41;;;19.66;43.81
54369;BME280;40266;52.434;17.056;2023-04-22T08:16:33;100599.45;;;19.51;43.91
54369;BME280;40266;52.434;17.056;2023-04-22T08:19:17;100600.26;;;19.40;44.22
54369;BME280;40266;52.434;17.056;2023-04-22T08:22:00;100602.16;;;19.15;43.84
54369;BME280;40266;52.434;17.056;2023-04-22T08:24:44;100597.08;;;19.04;44.25
54369;BME280;40266;52.434;17.056;2023-04-22T08:27:27;100593.94;;;19.03;44.07
54369;BME280;40266;52.434;17.056;2023-04-22T08:30:10;100595.13;;;19.14;43.84
54369;BME280;40266;52.434;17.056;2023-04-22T08:32:53;100595.48;;;19.37;43.13
54369;BME280;40266;52.434;17.056;2023-04-22T08:35:37;100592.55;;;19.45;43.54
54369;BME280;40266;52.434;17.056;2023-04-22T08:38:20;100590.33;;;19.66;43.22
54369;BME280;40266;52.434;17.056;2023-04-22T08:41:04;100587.05;;;20.08;42.60
54369;BME280;40266;52.434;17.056;2023-04-22T08:43:48;100584.98;;;20.66;41.89
54369;BME280;40266;52.434;17.056;2023-04-22T08:46:31;100585.20;;;20.92;41.46
54369;BME280;40266;52.434;17.056;2023-04-22T08:49:14;100581.27;;;20.69;40.99
54369;BME280;40266;52.434;17.056;2023-04-22T08:51:57;100584.90;;;20.38;40.91
54369;BME280;40266;52.434;17.056;2023-04-22T08:54:41;100586.29;;;20.15;40.79
54369;BME280;40266;52.434;17.056;2023-04-22T08:57:25;100586.28;;;19.94;40.91
54369;BME280;40266;52.434;17.056;2023-04-22T09:00:08;100584.81;;;19.76;40.72
54369;BME280;40266;52.434;17.056;2023-04-22T09:02:52;100583.27;;;19.62;41.23
54369;BME280;40266;52.434;17.056;2023-04-22T09:05:36;100582.70;;;19.56;40.94
54369;BME280;40266;52.434;17.056;2023-04-22T09:08:21;100580.46;;;19.52;40.92
54369;BME280;40266;52.434;17.056;2023-04-22T09:11:04;100575.95;;;19.47;40.91
54369;BME280;40266;52.434;17.056;2023-04-22T09:13:47;100577.06;;;19.46;40.61
54369;BME280;40266;52.434;17.056;2023-04-22T09:16:30;100575.23;;;19.47;41.19
54369;BME280;40266;52.434;17.056;2023-04-22T09:19:14;100578.82;;;19.46;40.93
54369;BME280;40266;52.434;17.056;2023-04-22T09:21:57;100577.98;;;19.46;39.97
54369;BME280;40266;52.434;17.056;2023-04-22T09:24:42;100573.55;;;19.39;39.41
54369;BME280;40266;52.434;17.056;2023-04-22T09:27:27;100573.46;;;19.41;39.25
54369;BME280;40266;52.434;17.056;2023-04-22T09:30:11;100573.22;;;19.36;39.08
54369;BME280;40266;52.434;17.056;2023-04-22T09:33:00;100570.16;;;19.36;39.14
54369;BME280;40266;52.434;17.056;2023-04-22T09:35:44;100572.77;;;19.41;38.29
54369;BME280;40266;52.434;17.056;2023-04-22T09:38:30;100563.83;;;19.42;37.81
54369;BME280;40266;52.434;17.056;2023-04-22T09:41:14;100564.54;;;19.46;37.91
54369;BME280;40266;52.434;17.056;2023-04-22T09:43:58;100563.23;;;19.50;37.44
54369;BME280;40266;52.434;17.056;2023-04-22T09:46:42;100559.65;;;19.53;38.03
54369;BME280;40266;52.434;17.056;2023-04-22T09:49:26;100559.08;;;19.57;36.76
54369;BME280;40266;52.434;17.056;2023-04-22T09:52:09;100557.77;;;19.58;36.30
54369;BME280;40266;52.434;17.056;2023-04-22T09:54:53;100561.96;;;19.54;36.62
54369;BME280;40266;52.434;17.056;2023-04-22T09:57:38;100557.52;;;19.54;35.92
54369;BME280;40266;52.434;17.056;2023-04-22T10:00:28;100553.30;;;19.53;35.46
54369;BME280;40266;52.434;17.056;2023-04-22T10:03:12;100550.08;;;19.57;35.46
54369;BME280;40266;52.434;17.056;2023-04-22T10:05:59;100548.48;;;19.59;34.83
54369;BME280;40266;52.434;17.056;2023-04-22T10:08:43;100542.59;;;19.55;34.01
54369;BME280;40266;52.434;17.056;2023-04-22T10:11:27;100542.48;;;19.53;33.90
54369;BME280;40266;52.434;17.056;2023-04-22T10:14:09;100544.50;;;19.52;34.24
54369;BME280;40266;52.434;17.056;2023-04-22T10:16:58;100538.79;;;19.47;34.36
54369;BME280;40266;52.434;17.056;2023-04-22T10:19:45;100535.60;;;19.47;34.15
54369;BME280;40266;52.434;17.056;2023-04-22T10:22:30;100529.48;;;19.42;33.43
54369;BME280;40266;52.434;17.056;2023-04-22T10:25:33;100532.74;;;19.41;34.47
54369;BME280;40266;52.434;17.056;2023-04-22T10:28:17;100528.10;;;19.48;35.56
54369;BME280;40266;52.434;17.056;2023-04-22T10:31:05;100524.80;;;19.56;35.38
54369;BME280;40266;52.434;17.056;2023-04-22T10:33:48;100523.85;;;19.57;34.79
54369;BME280;40266;52.434;17.056;2023-04-22T10:36:32;100525.04;;;19.58;34.12
54369;BME280;40266;52.434;17.056;2023-04-22T10:39:15;100526.41;;;19.62;34.44
54369;BME280;40266;52.434;17.056;2023-04-22T10:44:47;100529.30;;;19.67;33.62
54369;BME280;40266;52.434;17.056;2023-04-22T10:47:35;100522.95;;;19.63;33.85
54369;BME280;40266;52.434;17.056;2023-04-22T10:50:23;100519.45;;;19.66;33.86
54369;BME280;40266;52.434;17.056;2023-04-22T10:53:36;100518.95;;;19.66;32.70
54369;BME280;40266;52.434;17.056;2023-04-22T10:56:19;100514.70;;;19.53;32.63
54369;BME280;40266;52.434;17.056;2023-04-22T10:59:14;100511.67;;;19.50;33.53
54369;BME280;40266;52.434;17.056;2023-04-22T11:02:05;100507.87;;;19.54;33.40
54369;BME280;40266;52.434;17.056;2023-04-22T11:04:50;100504.02;;;19.60;34.30
54369;BME280;40266;52.434;17.056;2023-04-22T11:07:36;100503.82;;;19.67;33.75
54369;BME280;40266;52.434;17.056;2023-04-22T11:10:51;100502.06;;;19.70;33.84
54369;BME280;40266;52.434;17.056;2023-04-22T11:13:35;100496.13;;;19.68;33.93
54369;BME280;40266;52.434;17.056;2023-04-22T11:16:20;100493.28;;;19.68;34.10
54369;BME280;40266;52.434;17.056;2023-04-22T11:19:04;100492.58;;;19.68;34.19
54369;BME280;40266;52.434;17.056;2023-04-22T11:21:47;100487.73;;;19.69;34.55
54369;BME280;40266;52.434;17.056;2023-04-22T11:24:32;100483.05;;;19.77;34.66
54369;BME280;40266;52.434;17.056;2023-04-22T11:27:17;100480.52;;;19.84;34.77
54369;BME280;40266;52.434;17.056;2023-04-22T11:30:09;100478.23;;;19.92;34.40
54369;BME280;40266;52.434;17.056;2023-04-22T11:32:55;100472.93;;;19.95;34.29
54369;BME280;40266;52.434;17.056;2023-04-22T11:35:40;100466.98;;;19.94;34.36
54369;BME280;40266;52.434;17.056;2023-04-22T11:38:24;100466.95;;;19.97;33.70
54369;BME280;40266;52.434;17.056;2023-04-22T11:41:07;100462.70;;;20.00;33.67
54369;BME280;40266;52.434;17.056;2023-04-22T11:43:51;100466.45;;;19.94;32.75
54369;BME280;40266;52.434;17.056;2023-04-22T11:46:35;100458.45;;;19.86;33.75
54369;BME280;40266;52.434;17.056;2023-04-22T11:49:21;100463.94;;;19.91;34.23
54369;BME280;40266;52.434;17.056;2023-04-22T11:52:04;100459.80;;;19.95;33.81
54369;BME280;40266;52.434;17.056;2023-04-22T11:54:47;100453.45;;;19.98;33.79
54369;BME280;40266;52.434;17.056;2023-04-22T11:57:34;100452.73;;;20.01;34.01
54369;BME280;40266;52.434;17.056;2023-04-22T12:00:18;100449.62;;;20.02;34.01
54369;BME280;40266;52.434;17.056;2023-04-22T12:03:04;100447.50;;;20.02;33.23
54369;BME280;40266;52.434;17.056;2023-04-22T12:06:00;100448.27;;;20.01;33.72
54369;BME280;40266;52.434;17.056;2023-04-22T12:08:43;100448.40;;;20.08;34.02
54369;BME280;40266;52.434;17.056;2023-04-22T12:11:29;100447.14;;;20.11;34.11
54369;BME280;40266;52.434;17.056;2023-04-22T12:14:11;100440.70;;;20.12;33.96
54369;BME280;40266;52.434;17.056;2023-04-22T12:16:54;100441.27;;;20.12;33.66
54369;BME280;40266;52.434;17.056;2023-04-22T12:19:37;100434.05;;;20.08;33.02
54369;BME280;40266;52.434;17.056;2023-04-22T12:22:25;100435.60;;;20.06;33.72
54369;BME280;40266;52.434;17.056;2023-04-22T12:25:09;100436.62;;;20.10;34.15
54369;BME280;40266;52.434;17.056;2023-04-22T12:27:52;100429.02;;;20.15;34.26
54369;BME280;40266;52.434;17.056;2023-04-22T12:30:35;100427.59;;;20.21;33.58
54369;BME280;40266;52.434;17.056;2023-04-22T12:33:17;100424.56;;;20.24;32.51
54369;BME280;40266;52.434;17.056;2023-04-22T12:36:01;100417.61;;;20.22;33.09
54369;BME280;40266;52.434;17.056;2023-04-22T12:38:46;100424.75;;;20.24;32.74
54369;BME280;40266;52.434;17.056;2023-04-22T12:41:29;100417.46;;;20.24;32.29
54369;BME280;40266;52.434;17.056;2023-04-22T12:44:12;100411.14;;;20.20;32.09
54369;BME280;40266;52.434;17.056;2023-04-22T12:46:55;100408.70;;;20.17;32.80
54369;BME280;40266;52.434;17.056;2023-04-22T12:49:38;100403.38;;;20.17;32.54
54369;BME280;40266;52.434;17.056;2023-04-22T12:52:22;100404.64;;;20.19;33.25
54369;BME280;40266;52.434;17.056;2023-04-22T12:55:05;100403.23;;;20.24;32.76
54369;BME280;40266;52.434;17.056;2023-04-22T12:57:49;100403.24;;;20.27;31.72
54369;BME280;40266;52.434;17.056;2023-04-22T13:00:33;100401.17;;;20.24;31.63
54369;BME280;40266;52.434;17.056;2023-04-22T13:03:16;100399.57;;;20.27;32.12
54369;BME280;40266;52.434;17.056;2023-04-22T13:05:59;100393.20;;;20.27;31.60
54369;BME280;40266;52.434;17.056;2023-04-22T13:08:42;100387.05;;;20.26;32.00
54369;BME280;40266;52.434;17.056;2023-04-22T13:11:25;100381.67;;;20.27;32.10
54369;BME280;40266;52.434;17.056;2023-04-22T13:14:08;100375.95;;;20.30;32.46
54369;BME280;40266;52.434;17.056;2023-04-22T13:16:52;100379.76;;;20.34;32.67
54369;BME280;40266;52.434;17.056;2023-04-22T13:19:35;100380.33;;;20.36;32.17
54369;BME280;40266;52.434;17.056;2023-04-22T13:22:18;100380.48;;;20.39;32.41
54369;BME280;40266;52.434;17.056;2023-04-22T13:25:01;100370.98;;;20.44;33.09
54369;BME280;40266;52.434;17.056;2023-04-22T13:27:44;100365.18;;;20.49;32.47
54369;BME280;40266;52.434;17.056;2023-04-22T13:30:27;100359.02;;;20.54;32.56
54369;BME280;40266;52.434;17.056;2023-04-22T13:33:10;100356.41;;;20.56;32.72
54369;BME280;40266;52.434;17.056;2023-04-22T13:35:53;100357.92;;;20.58;32.63
54369;BME280;40266;52.434;17.056;2023-04-22T13:38:36;100351.05;;;20.54;32.27
54369;BME280;40266;52.434;17.056;2023-04-22T13:41:20;100357.06;;;20.54;31.52
54369;BME280;40266;52.434;17.056;2023-04-22T13:44:04;100349.98;;;20.48;31.24
54369;BME280;40266;52.434;17.056;2023-04-22T13:46:47;100351.88;;;20.43;30.92
54369;BME280;40266;52.434;17.056;2023-04-22T13:49:30;100351.88;;;20.41;30.96
54369;BME280;40266;52.434;17.056;2023-04-22T13:52:13;100348.80;;;20.39;31.23
54369;BME280;40266;52.434;17.056;2023-04-22T13:54:57;100340.35;;;20.38;31.61
54369;BME280;40266;52.434;17.056;2023-04-22T13:57:41;100334.35;;;20.40;31.84
54369;BME280;40266;52.434;17.056;2023-04-22T14:00:24;100331.44;;;20.44;31.79
54369;BME280;40266;52.434;17.056;2023-04-22T14:03:07;100332.34;;;20.44;31.66
54369;BME280;40266;52.434;17.056;2023-04-22T14:05:50;100333.31;;;20.43;31.66
54369;BME280;40266;52.434;17.056;2023-04-22T14:08:35;100331.80;;;20.41;31.59
54369;BME280;40266;52.434;17.056;2023-04-22T14:11:18;100330.06;;;20.43;32.05
54369;BME280;40266;52.434;17.056;2023-04-22T14:14:01;100326.12;;;20.47;31.38
54369;BME280;40266;52.434;17.056;2023-04-22T14:16:44;100323.55;;;20.48;31.61
54369;BME280;40266;52.434;17.056;2023-04-22T14:19:29;100319.27;;;20.49;31.29
54369;BME280;40266;52.434;17.056;2023-04-22T14:22:13;100320.74;;;20.48;31.48
54369;BME280;40266;52.434;17.056;2023-04-22T14:24:56;100315.77;;;20.48;31.47
54369;BME280;40266;52.434;17.056;2023-04-22T14:27:39;100312.81;;;20.47;30.74
54369;BME280;40266;52.434;17.056;2023-04-22T14:30:22;100312.95;;;20.45;30.90
54369;BME280;40266;52.434;17.056;2023-04-22T14:33:06;100309.18;;;20.45;30.92
54369;BME280;40266;52.434;17.056;2023-04-22T14:35:50;100305.27;;;20.46;31.01
54369;BME280;40266;52.434;17.056;2023-04-22T14:38:34;100303.52;;;20.48;30.88
54369;BME280;40266;52.434;17.056;2023-04-22T14:41:27;100302.27;;;20.49;30.98
54369;BME280;40266;52.434;17.056;2023-04-22T14:44:10;100304.61;;;20.45;30.35
54369;BME280;40266;52.434;17.056;2023-04-22T14:46:53;100312.63;;;20.39;30.33
54369;BME280;40266;52.434;17.056;2023-04-22T14:49:36;100304.58;;;20.37;30.71
54369;BME280;40266;52.434;17.056;2023-04-22T14:52:20;100300.39;;;20.36;30.96
54369;BME280;40266;52.434;17.056;2023-04-22T14:55:03;100302.30;;;20.37;31.24
54369;BME280;40266;52.434;17.056;2023-04-22T14:58:01;100300.36;;;20.36;31.53
54369;BME280;40266;52.434;17.056;2023-04-22T15:00:44;100295.73;;;20.34;32.11
54369;BME280;40266;52.434;17.056;2023-04-22T15:03:28;100294.46;;;20.32;31.73
54369;BME280;40266;52.434;17.056;2023-04-22T15:06:12;100294.95;;;20.30;32.27
54369;BME280;40266;52.434;17.056;2023-04-22T15:08:55;100290.18;;;20.24;31.48
54369;BME280;40266;52.434;17.056;2023-04-22T15:11:38;100291.34;;;20.19;30.73